Terminal Aerodrome Forecast
Issued by NWS Sterling, VA

Current Version | Previous Version | Text Only | Print | Product List | Glossary On
Versions: 1 2 3 4 5 6 7 8 9 10 11 12 13 14 15 16 17 18 19 20 21 22 23 24 25 26 27
000
FTUS41 KLWX 242106 AAA
TAFIAD
TAF AMD
KIAD 242106Z 2421/2524 31013G22KT P6SM BKN030 BKN080
     FM242300 31012G20KT P6SM SCT040
     FM250300 31009KT P6SM SKC
     FM250900 28005KT P6SM SKC
     FM251300 22005KT P6SM FEW250=

USA.gov is the U.S. government's official web portal to all federal, state and local government web resources and services.